createdAt,value
2018-09-22T00:01:11.422Z,98443.55
2018-09-22T00:03:42.043Z,98450.92
2018-09-22T00:06:12.397Z,98461.49
2018-09-22T00:08:42.617Z,98463.03
2018-09-22T00:11:13.413Z,98475.25
2018-09-22T00:13:43.646Z,98464.16
2018-09-22T00:16:13.989Z,98464.55
2018-09-22T00:18:45.141Z,98472.55
2018-09-22T00:21:15.284Z,98462.55
2018-09-22T00:23:45.380Z,98476.20
2018-09-22T00:26:15.655Z,98488.55
2018-09-22T00:28:46.127Z,98479.71
2018-09-22T00:31:16.593Z,98486.59
2018-09-22T00:33:47.829Z,98483.08
2018-09-22T00:36:17.983Z,98486.94
2018-09-22T00:38:48.235Z,98476.13
2018-09-22T00:41:18.489Z,98471.28
2018-09-22T00:43:49.103Z,98477.46
2018-09-22T00:46:19.536Z,98477.46
2018-09-22T00:48:49.591Z,98471.63
2018-09-22T00:51:19.983Z,98473.84
2018-09-22T00:53:50.234Z,98478.48
2018-09-22T00:56:20.601Z,98486.13
2018-09-22T00:58:50.901Z,98477.98
2018-09-22T01:01:21.423Z,98481.50
2018-09-22T01:03:51.915Z,98482.48
2018-09-22T01:06:22.282Z,98493.50
2018-09-22T01:08:52.937Z,98496.52
2018-09-22T01:11:23.279Z,98502.48
2018-09-22T01:13:53.519Z,98509.65
2018-09-22T01:16:23.733Z,98504.67
2018-09-22T01:18:54.157Z,98506.84
2018-09-22T01:21:24.303Z,98503.19
2018-09-22T01:23:54.723Z,98505.02
2018-09-22T01:26:25.190Z,98512.18
2018-09-22T01:28:55.752Z,98518.70
2018-09-22T01:31:26.009Z,98516.33
2018-09-22T01:33:56.687Z,98515.34
2018-09-22T01:37:02.481Z,98521.48
2018-09-22T01:39:38.104Z,98521.66
2018-09-22T01:42:08.551Z,98535.84
2018-09-22T01:44:38.554Z,98533.84
2018-09-22T01:47:08.695Z,98536.02
2018-09-22T01:49:38.989Z,98546.16
2018-09-22T01:52:09.179Z,98539.66
2018-09-22T01:54:39.676Z,98539.48
2018-09-22T01:57:10.092Z,98530.67
2018-09-22T01:59:40.420Z,98537.98
2018-09-22T02:02:10.868Z,98536.02
2018-09-22T02:04:41.111Z,98534.68
2018-09-22T02:07:11.297Z,98540.33
2018-09-22T02:09:41.740Z,98545.17
2018-09-22T02:12:12.042Z,98549.14
2018-09-22T02:14:42.456Z,98545.67
2018-09-22T02:17:12.700Z,98550.16
2018-09-22T02:19:43.228Z,98549.84
2018-09-22T02:22:13.436Z,98551.49
2018-09-22T02:24:43.582Z,98544.83
2018-09-22T02:27:13.610Z,98547.31
2018-09-22T02:29:43.673Z,98544.92
2018-09-22T02:32:13.748Z,98545.14
2018-09-22T02:34:43.874Z,98541.00
2018-09-22T02:37:13.884Z,98546.75
2018-09-22T02:39:43.978Z,98545.28
2018-09-22T02:42:14.032Z,98550.96
2018-09-22T02:44:43.965Z,98549.98
2018-09-22T02:47:14.069Z,98550.47
2018-09-22T02:49:44.156Z,98570.63
2018-09-22T02:52:14.337Z,98567.81
2018-09-22T02:54:44.526Z,98569.15
2018-09-22T02:57:16.122Z,98572.80
2018-09-22T02:59:46.292Z,98569.78
2018-09-22T03:02:16.673Z,98578.63
2018-09-22T03:04:47.002Z,98585.78
2018-09-22T03:07:17.092Z,98585.64
2018-09-22T03:09:47.456Z,98585.78
2018-09-22T03:12:17.554Z,98585.78
2018-09-22T03:14:47.724Z,98587.96
2018-09-22T03:17:17.874Z,98579.74
2018-09-22T03:19:48.194Z,98582.23
2018-09-22T03:22:18.297Z,98581.43
2018-09-22T03:24:48.719Z,98587.25
2018-09-22T03:27:18.883Z,98584.94
2018-09-22T03:29:49.009Z,98571.25
2018-09-22T03:32:19.349Z,98573.08
2018-09-22T03:34:49.637Z,98571.25
2018-09-22T03:37:19.901Z,98561.73
2018-09-22T03:39:50.016Z,98570.58
2018-09-22T03:42:20.088Z,98570.50
2018-09-22T03:44:50.292Z,98584.69
2018-09-22T03:47:20.597Z,98586.72
2018-09-22T03:49:50.668Z,98577.88
2018-09-22T03:52:20.891Z,98567.34
2018-09-22T03:54:50.981Z,98572.33
2018-09-22T03:57:21.615Z,98578.16
2018-09-22T03:59:51.809Z,98577.80
2018-09-22T04:02:21.857Z,98580.47
2018-09-22T04:04:52.043Z,98583.00
2018-09-22T04:07:22.278Z,98592.47
2018-09-22T04:09:52.507Z,98591.48
2018-09-22T04:12:22.540Z,98590.78
2018-09-22T04:14:53.019Z,98589.63
2018-09-22T04:17:23.494Z,98586.47
2018-09-22T04:19:54.048Z,98587.27
2018-09-22T04:22:24.501Z,98588.47
2018-09-22T04:24:54.838Z,98576.61
2018-09-22T04:27:24.982Z,98586.78
2018-09-22T04:29:55.043Z,98591.94
2018-09-22T04:32:25.395Z,98598.95
2018-09-22T04:34:55.508Z,98591.58
2018-09-22T04:37:25.919Z,98594.74
2018-09-22T04:39:56.379Z,98600.70
2018-09-22T04:42:30.223Z,98597.19
2018-09-22T04:45:00.605Z,98576.70
2018-09-22T04:47:30.881Z,98578.52
2018-09-22T04:50:01.037Z,98591.37
2018-09-22T04:52:31.670Z,98602.34
2018-09-22T04:55:02.305Z,98611.02
2018-09-22T04:57:32.485Z,98604.00
2018-09-22T05:00:02.626Z,98597.50
2018-09-22T05:02:32.899Z,98608.80
2018-09-22T05:05:03.001Z,98607.16
2018-09-22T05:07:33.632Z,98607.81
2018-09-22T05:10:03.890Z,98609.98
2018-09-22T05:12:34.040Z,98623.81
2018-09-22T05:15:05.013Z,98627.33
2018-09-22T05:17:35.195Z,98621.28
2018-09-22T05:20:05.445Z,98631.68
2018-09-22T05:22:35.588Z,98636.70
2018-09-22T05:25:05.939Z,98631.81
2018-09-22T05:27:36.381Z,98632.80
2018-09-22T05:30:06.620Z,98639.46
2018-09-22T05:32:40.659Z,98625.64
2018-09-22T05:35:15.619Z,98623.11
2018-09-22T05:37:45.565Z,98621.28
2018-09-22T05:40:15.595Z,98621.91
2018-09-22T05:42:45.950Z,98623.24
2018-09-22T05:45:15.984Z,98627.11
2018-09-22T05:47:45.977Z,98635.24
2018-09-22T05:50:15.935Z,98630.27
2018-09-22T05:52:46.558Z,98640.09
2018-09-22T05:55:16.830Z,98639.34
2018-09-22T05:57:46.851Z,98653.64
2018-09-22T06:00:16.954Z,98661.91
2018-09-22T06:02:47.120Z,98653.61
2018-09-22T06:05:17.237Z,98652.77
2018-09-22T06:07:48.777Z,98656.98
2018-09-22T06:10:20.544Z,98654.80
2018-09-22T06:12:52.261Z,98661.96
2018-09-22T06:15:22.309Z,98664.27
2018-09-22T06:17:54.158Z,98664.63
2018-09-22T06:20:24.690Z,98674.45
2018-09-22T06:22:54.702Z,98677.47
2018-09-22T06:25:24.747Z,98685.16
2018-09-22T06:27:55.022Z,98679.16
2018-09-22T06:30:24.996Z,98690.45
2018-09-22T06:32:55.000Z,98691.06
2018-09-22T06:35:25.218Z,98691.06
2018-09-22T06:37:56.538Z,98696.41
2018-09-22T06:40:26.870Z,98688.84
2018-09-22T06:42:57.059Z,98690.03
2018-09-22T06:45:27.199Z,98692.26
2018-09-22T06:47:57.583Z,98691.99
2018-09-22T06:50:28.630Z,98685.89
2018-09-22T06:52:58.796Z,98698.09
2018-09-22T06:55:28.777Z,98705.38
2018-09-22T06:57:58.793Z,98703.32
2018-09-22T07:00:28.880Z,98698.41
2018-09-22T07:02:58.994Z,98702.19
2018-09-22T07:05:29.190Z,98702.61
2018-09-22T07:07:59.261Z,98704.11
2018-09-22T07:10:29.480Z,98707.42
2018-09-22T07:12:59.600Z,98708.66
2018-09-22T07:15:29.632Z,98719.09
2018-09-22T07:17:59.633Z,98729.84
2018-09-22T07:20:29.665Z,98727.89
2018-09-22T07:23:05.105Z,98711.78
2018-09-22T07:25:35.099Z,98717.95
2018-09-22T07:28:05.170Z,98720.91
2018-09-22T07:30:35.236Z,98714.64
2018-09-22T07:33:05.334Z,98729.00
2018-09-22T07:35:35.508Z,98732.25
2018-09-22T07:38:05.948Z,98729.06
2018-09-22T07:40:36.000Z,98733.24
2018-09-22T07:43:06.083Z,98726.41
2018-09-22T07:45:36.292Z,98740.52
2018-09-22T07:48:06.326Z,98730.41
2018-09-22T07:50:36.498Z,98729.52
2018-09-22T07:53:06.438Z,98731.38
2018-09-22T07:55:36.585Z,98730.66
2018-09-22T07:58:06.944Z,98733.86
2018-09-22T08:00:37.026Z,98733.61
2018-09-22T08:03:07.265Z,98747.52
2018-09-22T08:05:37.280Z,98735.30
2018-09-22T08:08:07.408Z,98723.39
2018-09-22T08:10:37.438Z,98723.56
2018-09-22T08:13:08.052Z,98720.91
2018-09-22T08:15:38.065Z,98721.03
2018-09-22T08:18:08.394Z,98721.77
2018-09-22T08:20:38.491Z,98720.72
2018-09-22T08:23:08.549Z,98727.58
2018-09-22T08:25:38.650Z,98716.94
2018-09-22T08:28:08.887Z,98718.71
2018-09-22T08:30:39.210Z,98711.90
2018-09-22T08:33:09.669Z,98710.61
2018-09-22T08:35:39.871Z,98701.47
2018-09-22T08:38:10.100Z,98702.55
2018-09-22T08:40:40.242Z,98709.81
2018-09-22T08:43:11.790Z,98711.34
2018-09-22T08:45:42.275Z,98714.27
2018-09-22T08:48:13.354Z,98726.84
2018-09-22T08:50:44.344Z,98721.89
2018-09-22T08:53:15.356Z,98719.44
2018-09-22T08:55:45.447Z,98719.34
2018-09-22T08:58:16.855Z,98729.02
2018-09-22T09:00:48.078Z,98739.18
2018-09-22T09:03:18.621Z,98737.73
2018-09-22T09:05:48.784Z,98753.08
2018-09-22T09:08:19.835Z,98745.14
2018-09-22T09:10:50.576Z,98754.93
2018-09-22T09:13:21.490Z,98764.59
2018-09-22T09:15:52.184Z,98759.44
2018-09-22T09:18:23.797Z,98749.22
2018-09-22T09:20:54.614Z,98748.58
2018-09-22T09:23:25.847Z,98753.41
2018-09-22T09:25:56.139Z,98753.36
2018-09-22T09:28:26.209Z,98751.15
2018-09-22T09:30:56.821Z,98748.58
2018-09-22T09:33:28.524Z,98744.42
2018-09-22T09:36:00.118Z,98752.48
2018-09-22T09:38:32.131Z,98738.13
2018-09-22T09:41:02.598Z,98726.56
2018-09-22T09:43:33.293Z,98725.12
2018-09-22T09:46:04.008Z,98721.33
2018-09-22T09:48:34.669Z,98712.66
2018-09-22T09:51:05.862Z,98710.12
2018-09-22T09:53:36.198Z,98703.17
2018-09-22T09:56:07.195Z,98692.61
2018-09-22T09:58:38.273Z,98701.48
2018-09-22T10:01:08.527Z,98708.27
2018-09-22T10:03:39.050Z,98709.84
2018-09-22T10:06:10.453Z,98700.03
2018-09-22T10:08:41.239Z,98705.05
2018-09-22T10:11:11.290Z,98713.55
2018-09-22T10:13:42.794Z,98715.36
2018-09-22T10:16:13.977Z,98708.58
2018-09-22T10:18:44.205Z,98715.59
2018-09-22T10:21:15.221Z,98703.18
2018-09-22T10:23:47.288Z,98698.58
2018-09-22T10:26:18.616Z,98692.79
2018-09-22T10:28:49.765Z,98695.39
2018-09-22T10:31:22.296Z,98682.98
2018-09-22T10:33:54.288Z,98681.76
2018-09-22T10:36:26.392Z,98664.23
2018-09-22T10:38:56.874Z,98661.51
2018-09-22T10:41:27.436Z,98657.03
2018-09-22T10:43:58.988Z,98663.20
2018-09-22T10:46:30.246Z,98664.66
2018-09-22T10:49:01.359Z,98673.29
2018-09-22T10:51:32.912Z,98664.95
2018-09-22T10:54:03.654Z,98659.80
2018-09-22T10:56:35.340Z,98654.73
2018-09-22T10:59:06.841Z,98666.63
2018-09-22T11:01:37.162Z,98662.75
2018-09-22T11:04:09.911Z,98668.50
2018-09-22T11:06:41.235Z,98678.61
2018-09-22T11:09:11.698Z,98679.45
2018-09-22T11:11:42.279Z,98666.01
2018-09-22T11:14:15.433Z,98661.95
2018-09-22T11:16:46.191Z,98669.45
2018-09-22T11:19:16.643Z,98669.09
2018-09-22T11:21:47.901Z,98645.88
2018-09-22T11:24:19.346Z,98630.74
2018-09-22T11:26:49.869Z,98636.84
2018-09-22T11:29:20.863Z,98633.05
2018-09-22T11:31:51.172Z,98626.45
2018-09-22T11:34:21.352Z,98633.73
2018-09-22T11:36:52.286Z,98624.45
2018-09-22T11:39:23.338Z,98623.47
2018-09-22T11:41:54.304Z,98624.86
2018-09-22T11:44:26.182Z,98632.62
2018-09-22T11:46:57.201Z,98624.51
2018-09-22T11:49:32.721Z,98626.20
2018-09-22T11:52:04.913Z,98613.92
2018-09-22T11:54:35.456Z,98612.75
2018-09-22T11:57:06.184Z,98600.05
2018-09-22T11:59:38.514Z,98583.46
2018-09-22T12:04:39.696Z,98581.22
2018-09-22T12:07:11.104Z,98586.97
2018-09-22T12:09:43.068Z,98603.40
2018-09-22T12:12:13.551Z,98599.72
2018-09-22T12:14:44.695Z,98588.73
2018-09-22T12:17:20.016Z,98584.73
2018-09-22T12:19:51.576Z,98580.16
2018-09-22T12:22:27.917Z,98575.19
2018-09-22T12:24:59.198Z,98577.16
2018-09-22T12:27:30.417Z,98590.89
2018-09-22T12:30:01.480Z,98592.54
2018-09-22T12:32:32.282Z,98581.40
2018-09-22T12:35:04.346Z,98572.52
2018-09-22T12:37:35.187Z,98568.27
2018-09-22T12:40:06.321Z,98566.36
2018-09-22T12:42:37.138Z,98559.92
2018-09-22T12:45:07.418Z,98550.73
2018-09-22T12:47:38.451Z,98548.42
2018-09-22T12:50:08.760Z,98548.40
2018-09-22T12:52:39.181Z,98555.28
2018-09-22T12:55:09.317Z,98552.20
2018-09-22T12:57:40.153Z,98552.20
2018-09-22T13:00:10.905Z,98541.95
2018-09-22T13:02:41.197Z,98538.09
2018-09-22T13:05:12.457Z,98529.34
2018-09-22T13:07:44.016Z,98531.08
2018-09-22T13:10:15.447Z,98524.99
2018-09-22T13:12:46.921Z,98522.32
2018-09-22T13:15:17.883Z,98520.28
2018-09-22T13:17:48.324Z,98512.29
2018-09-22T13:20:20.246Z,98490.13
2018-09-22T13:22:51.569Z,98473.88
2018-09-22T13:25:22.689Z,98468.68
2018-09-22T13:27:54.626Z,98476.45
2018-09-22T13:30:25.209Z,98478.41
2018-09-22T13:32:56.408Z,98490.61
2018-09-22T13:35:28.667Z,98488.21
2018-09-22T13:38:00.475Z,98475.94
2018-09-22T13:40:32.607Z,98465.77
2018-09-22T13:43:04.017Z,98461.50
2018-09-22T13:45:34.841Z,98446.34
2018-09-22T13:48:06.884Z,98474.13
2018-09-22T13:50:37.168Z,98468.92
2018-09-22T13:53:09.081Z,98466.94
2018-09-22T13:55:39.092Z,98459.92
2018-09-22T13:58:09.477Z,98458.63
2018-09-22T14:00:41.105Z,98469.30
2018-09-22T14:03:12.244Z,98469.73
2018-09-22T14:05:42.975Z,98465.91
2018-09-22T14:08:13.285Z,98465.00
2018-09-22T14:10:43.605Z,98458.38
2018-09-22T14:13:13.939Z,98458.83
2018-09-22T14:15:45.025Z,98467.59
2018-09-22T14:18:18.499Z,98462.97
2018-09-22T14:20:50.015Z,98449.08
2018-09-22T14:23:20.502Z,98477.89
2018-09-22T14:25:51.281Z,98458.62
2018-09-22T14:28:21.529Z,98468.84
2018-09-22T14:30:53.604Z,98466.22
2018-09-22T14:33:24.790Z,98466.63
2018-09-22T14:35:54.939Z,98454.90
2018-09-22T14:38:25.056Z,98443.08
2018-09-22T14:40:55.815Z,98452.66
2018-09-22T14:43:26.241Z,98454.55
2018-09-22T14:45:56.781Z,98464.58
2018-09-22T14:48:26.947Z,98446.55
2018-09-22T14:50:57.597Z,98447.07
2018-09-22T14:53:29.635Z,98434.62
2018-09-22T14:56:00.210Z,98423.23
2018-09-22T14:58:31.693Z,98423.63
2018-09-22T15:01:02.987Z,98413.59
2018-09-22T15:03:34.063Z,98400.20
2018-09-22T15:06:05.500Z,98405.31
2018-09-22T15:08:38.236Z,98423.69
2018-09-22T15:11:08.916Z,98416.08
2018-09-22T15:13:40.508Z,98412.84
2018-09-22T15:16:11.433Z,98410.39
2018-09-22T15:18:41.781Z,98399.70
2018-09-22T15:21:12.637Z,98405.92
2018-09-22T15:23:43.335Z,98414.05
2018-09-22T15:26:14.360Z,98407.91
2018-09-22T15:28:46.092Z,98409.64
2018-09-22T15:31:17.573Z,98386.16
2018-09-22T15:33:49.599Z,98409.41
2018-09-22T15:36:20.758Z,98405.83
2018-09-22T15:38:52.112Z,98403.59
2018-09-22T15:41:23.797Z,98407.34
2018-09-22T15:43:55.890Z,98408.19
2018-09-22T15:46:26.926Z,98398.20
2018-09-22T15:48:58.042Z,98386.63
2018-09-22T15:51:28.352Z,98388.94
2018-09-22T15:53:58.686Z,98397.15
2018-09-22T15:56:30.570Z,98405.67
2018-09-22T15:59:01.652Z,98401.92
2018-09-22T16:01:32.550Z,98396.30
2018-09-22T16:04:03.250Z,98395.28
2018-09-22T16:06:34.132Z,98391.14
2018-09-22T16:09:06.992Z,98376.87
2018-09-22T16:11:41.006Z,98398.77
2018-09-22T16:14:11.319Z,98398.91
2018-09-22T16:16:41.650Z,98389.08
2018-09-22T16:19:12.709Z,98389.67
2018-09-22T16:21:44.410Z,98380.09
2018-09-22T16:24:15.386Z,98375.30
2018-09-22T16:26:48.078Z,98387.88
2018-09-22T16:29:18.799Z,98367.93
2018-09-22T16:31:49.566Z,98346.58
2018-09-22T16:34:20.014Z,98335.32
2018-09-22T16:36:51.356Z,98322.31
2018-09-22T16:39:22.456Z,98327.14
2018-09-22T16:41:53.447Z,98333.73
2018-09-22T16:44:25.140Z,98352.12
2018-09-22T16:46:56.173Z,98349.48
2018-09-22T16:49:26.477Z,98350.50
2018-09-22T16:51:58.210Z,98348.81
2018-09-22T16:54:30.313Z,98354.05
2018-09-22T16:57:01.051Z,98348.50
2018-09-22T16:59:31.773Z,98350.78
2018-09-22T17:02:02.326Z,98349.80
2018-09-22T17:04:33.177Z,98352.16
2018-09-22T17:07:04.793Z,98359.97
2018-09-22T17:09:35.832Z,98357.16
2018-09-22T17:12:06.088Z,98354.81
2018-09-22T17:14:38.044Z,98349.55
2018-09-22T17:17:08.655Z,98356.22
2018-09-22T17:19:39.652Z,98358.04
2018-09-22T17:22:09.898Z,98356.70
2018-09-22T17:24:39.951Z,98349.41
2018-09-22T17:27:10.269Z,98356.98
2018-09-22T17:29:41.457Z,98351.17
2018-09-22T17:32:12.154Z,98346.50
2018-09-22T17:34:42.983Z,98354.29
2018-09-22T17:37:15.453Z,98353.48
2018-09-22T17:39:47.147Z,98364.56
2018-09-22T17:42:18.782Z,98369.05
2018-09-22T17:44:49.271Z,98379.44
2018-09-22T17:47:20.771Z,98380.24
2018-09-22T17:49:56.224Z,98384.80
2018-09-22T17:52:26.434Z,98382.91
2018-09-22T17:54:57.130Z,98388.77
2018-09-22T17:57:28.913Z,98389.78
2018-09-22T17:59:59.044Z,98389.29
2018-09-22T18:02:31.795Z,98395.95
2018-09-22T18:05:02.911Z,98396.80
2018-09-22T18:07:34.020Z,98393.78
2018-09-22T18:10:06.279Z,98398.13
2018-09-22T18:12:38.643Z,98391.19
2018-09-22T18:15:09.524Z,98389.36
2018-09-22T18:17:40.349Z,98402.91
2018-09-22T18:20:12.572Z,98405.36
2018-09-22T18:22:43.841Z,98406.03
2018-09-22T18:25:14.513Z,98412.23
2018-09-22T18:27:45.659Z,98414.41
2018-09-22T18:30:16.114Z,98415.74
2018-09-22T18:32:46.412Z,98415.11
2018-09-22T18:35:18.392Z,98414.62
2018-09-22T18:37:50.791Z,98419.46
2018-09-22T18:40:21.283Z,98413.49
2018-09-22T18:42:51.999Z,98415.14
2018-09-22T18:45:22.643Z,98419.49
2018-09-22T18:47:53.129Z,98419.00
2018-09-22T18:50:23.815Z,98423.14
2018-09-22T18:52:54.501Z,98422.86
2018-09-22T18:55:25.507Z,98419.70
2018-09-22T18:57:55.691Z,98421.17
2018-09-22T19:00:26.950Z,98416.69
2018-09-22T19:02:58.558Z,98426.38
2018-09-22T19:05:28.637Z,98424.19
2018-09-22T19:07:58.808Z,98428.55
2018-09-22T19:10:29.836Z,98441.03
2018-09-22T19:13:03.154Z,98449.73
2018-09-22T19:15:39.568Z,98446.09
2018-09-22T19:18:17.419Z,98442.09
2018-09-22T19:20:54.172Z,98435.91
2018-09-22T19:23:32.124Z,98434.44
2018-09-22T19:26:07.820Z,98429.24
2018-09-22T19:28:45.856Z,98414.58
2018-09-22T19:31:20.817Z,98417.73
2018-09-22T19:33:55.095Z,98412.89
2018-09-22T19:36:29.272Z,98417.38
2018-09-22T19:39:03.597Z,98415.07
2018-09-22T19:41:39.956Z,98415.56
2018-09-22T19:44:30.482Z,98409.88
2018-09-22T19:47:09.222Z,98407.20
2018-09-22T19:49:52.376Z,98402.37
2018-09-22T19:52:58.883Z,98394.86
2018-09-22T19:55:29.385Z,98409.38
2018-09-22T19:57:59.970Z,98415.70
2018-09-22T20:00:30.406Z,98419.70
2018-09-22T20:03:01.447Z,98422.38
2018-09-22T20:05:31.550Z,98420.55
2018-09-22T20:08:02.193Z,98420.05
2018-09-22T20:10:32.658Z,98419.35
2018-09-22T20:13:03.129Z,98431.70
2018-09-22T20:15:33.518Z,98418.16
2018-09-22T20:18:03.752Z,98413.49
2018-09-22T20:20:34.586Z,98407.49
2018-09-22T20:23:05.087Z,98415.35
2018-09-22T20:25:35.322Z,98419.00
2018-09-22T20:28:05.684Z,98433.73
2018-09-22T20:30:35.881Z,98428.55
2018-09-22T20:33:06.306Z,98436.65
2018-09-22T20:35:37.032Z,98434.12
2018-09-22T20:38:07.627Z,98428.16
2018-09-22T20:40:37.841Z,98418.76
2018-09-22T20:43:08.105Z,98409.63
2018-09-22T20:45:38.895Z,98423.11
2018-09-22T20:48:09.333Z,98420.34
2018-09-22T20:50:39.754Z,98415.25
2018-09-22T20:53:10.597Z,98417.28
2018-09-22T20:55:40.915Z,98413.28
2018-09-22T20:58:11.469Z,98415.00
2018-09-22T21:00:42.011Z,98415.24
2018-09-22T21:03:12.739Z,98404.18
2018-09-22T21:05:42.960Z,98398.80
2018-09-22T21:08:13.248Z,98401.90
2018-09-22T21:10:43.451Z,98410.25
2018-09-22T21:13:14.003Z,98402.63
2018-09-22T21:15:44.736Z,98406.69
2018-09-22T21:18:14.980Z,98412.25
2018-09-22T21:20:45.208Z,98411.06
2018-09-22T21:23:15.962Z,98402.13
2018-09-22T21:25:45.995Z,98401.66
2018-09-22T21:28:16.386Z,98405.78
2018-09-22T21:30:46.880Z,98401.11
2018-09-22T21:33:17.300Z,98395.77
2018-09-22T21:35:48.000Z,98384.45
2018-09-22T21:38:18.137Z,98390.14
2018-09-22T21:40:48.390Z,98389.80
2018-09-22T21:43:18.763Z,98402.99
2018-09-22T21:45:49.179Z,98383.76
2018-09-22T21:48:19.615Z,98383.09
2018-09-22T21:50:49.781Z,98383.39
2018-09-22T21:53:20.023Z,98392.85
2018-09-22T21:55:50.581Z,98384.61
2018-09-22T21:58:20.826Z,98395.44
2018-09-22T22:00:53.081Z,98406.39
2018-09-22T22:03:23.940Z,98398.53
2018-09-22T22:05:54.133Z,98396.19
2018-09-22T22:08:24.097Z,98396.97
2018-09-22T22:10:54.171Z,98393.95
2018-09-22T22:13:24.374Z,98389.77
2018-09-22T22:15:54.643Z,98403.75
2018-09-22T22:18:24.943Z,98405.37
2018-09-22T22:20:55.046Z,98399.69
2018-09-22T22:23:25.164Z,98400.15
2018-09-22T22:25:55.265Z,98406.47
2018-09-22T22:28:25.314Z,98402.11
2018-09-22T22:30:55.464Z,98391.94
2018-09-22T22:33:25.632Z,98387.41
2018-09-22T22:35:55.668Z,98390.43
2018-09-22T22:38:25.708Z,98394.92
2018-09-22T22:40:56.121Z,98402.08
2018-09-22T22:43:26.732Z,98399.56
2018-09-22T22:45:57.178Z,98404.89
2018-09-22T22:48:27.774Z,98402.83
2018-09-22T22:50:58.142Z,98404.69
2018-09-22T22:53:28.640Z,98405.67
2018-09-22T22:55:58.856Z,98401.88
2018-09-22T22:58:29.195Z,98396.83
2018-09-22T23:00:59.442Z,98394.97
2018-09-22T23:03:29.984Z,98390.48
2018-09-22T23:06:00.615Z,98394.83
2018-09-22T23:08:30.870Z,98389.49
2018-09-22T23:11:01.183Z,98380.66
2018-09-22T23:13:31.434Z,98385.98
2018-09-22T23:16:01.569Z,98378.62
2018-09-22T23:18:31.775Z,98373.78
2018-09-22T23:21:01.958Z,98377.42
2018-09-22T23:23:32.338Z,98384.23
2018-09-22T23:26:02.824Z,98379.11
2018-09-22T23:28:32.986Z,98375.85
2018-09-22T23:31:03.418Z,98378.20
2018-09-22T23:33:33.550Z,98370.70
2018-09-22T23:36:03.927Z,98377.08
2018-09-22T23:41:36.889Z,98364.88
2018-09-22T23:44:07.715Z,98362.20
2018-09-22T23:49:16.308Z,98360.88
2018-09-22T23:51:46.562Z,98359.33
2018-09-22T23:54:16.520Z,98360.17
2018-09-22T23:56:46.671Z,98361.16
2018-09-22T23:59:16.799Z,98357.86
